sensor_id;sensor_type;location;lat;lon;timestamp;pressure;altitude;pressure_sealevel;temperature;humidity
80118;BME280;69424;48.770;-1.564;2024-03-25T00:00:46;101002.52;;;6.45;78.13
80118;BME280;69424;48.770;-1.564;2024-03-25T00:01:54;101001.06;;;6.42;78.30
80118;BME280;69424;48.770;-1.564;2024-03-25T00:02:42;100996.98;;;6.41;78.54
80118;BME280;69424;48.770;-1.564;2024-03-25T00:03:30;100991.32;;;6.40;78.39
80118;BME280;69424;48.770;-1.564;2024-03-25T00:04:18;100989.04;;;6.40;78.57
80118;BME280;69424;48.770;-1.564;2024-03-25T00:05:09;100986.40;;;6.40;78.16
80118;BME280;69424;48.770;-1.564;2024-03-25T00:05:57;100983.59;;;6.40;78.51
80118;BME280;69424;48.770;-1.564;2024-03-25T00:06:45;100982.53;;;6.40;78.30
80118;BME280;69424;48.770;-1.564;2024-03-25T00:07:33;100974.27;;;6.40;78.58
80118;BME280;69424;48.770;-1.564;2024-03-25T00:08:21;100972.85;;;6.39;78.61
80118;BME280;69424;48.770;-1.564;2024-03-25T00:09:09;100969.52;;;6.40;78.48
80118;BME280;69424;48.770;-1.564;2024-03-25T00:10:02;100964.08;;;6.39;78.31
80118;BME280;69424;48.770;-1.564;2024-03-25T00:10:50;100964.95;;;6.39;78.43
80118;BME280;69424;48.770;-1.564;2024-03-25T00:11:38;100961.98;;;6.39;78.38
80118;BME280;69424;48.770;-1.564;2024-03-25T00:12:26;100958.07;;;6.38;78.42
80118;BME280;69424;48.770;-1.564;2024-03-25T00:13:13;100957.17;;;6.38;78.43
80118;BME280;69424;48.770;-1.564;2024-03-25T00:14:02;100956.65;;;6.38;78.38
80118;BME280;69424;48.770;-1.564;2024-03-25T00:14:50;100951.53;;;6.37;78.41
80118;BME280;69424;48.770;-1.564;2024-03-25T00:15:38;100950.26;;;6.36;78.46
80118;BME280;69424;48.770;-1.564;2024-03-25T00:16:26;100949.54;;;6.35;78.39
80118;BME280;69424;48.770;-1.564;2024-03-25T00:17:13;100947.73;;;6.34;78.34
80118;BME280;69424;48.770;-1.564;2024-03-25T00:18:02;100946.98;;;6.32;78.34
80118;BME280;69424;48.770;-1.564;2024-03-25T00:18:50;100946.98;;;6.31;78.30
80118;BME280;69424;48.770;-1.564;2024-03-25T00:19:38;100942.89;;;6.30;78.25
80118;BME280;69424;48.770;-1.564;2024-03-25T00:20:26;100942.88;;;6.30;78.08
80118;BME280;69424;48.770;-1.564;2024-03-25T00:21:14;100940.41;;;6.30;78.25
80118;BME280;69424;48.770;-1.564;2024-03-25T00:22:02;100939.37;;;6.30;78.45
80118;BME280;69424;48.770;-1.564;2024-03-25T00:22:49;100934.29;;;6.30;78.34
80118;BME280;69424;48.770;-1.564;2024-03-25T00:23:37;100932.36;;;6.30;78.35
80118;BME280;69424;48.770;-1.564;2024-03-25T00:24:25;100928.86;;;6.31;78.21
80118;BME280;69424;48.770;-1.564;2024-03-25T00:25:14;100927.83;;;6.32;78.44
80118;BME280;69424;48.770;-1.564;2024-03-25T00:26:04;100928.18;;;6.32;78.18
80118;BME280;69424;48.770;-1.564;2024-03-25T00:26:52;100928.21;;;6.33;78.29
80118;BME280;69424;48.770;-1.564;2024-03-25T00:27:40;100927.69;;;6.33;78.53
80118;BME280;69424;48.770;-1.564;2024-03-25T00:28:28;100926.31;;;6.34;78.25
80118;BME280;69424;48.770;-1.564;2024-03-25T00:29:15;100921.94;;;6.34;78.29
80118;BME280;69424;48.770;-1.564;2024-03-25T00:30:04;100920.20;;;6.35;78.32
80118;BME280;69424;48.770;-1.564;2024-03-25T00:30:52;100915.80;;;6.35;78.20
80118;BME280;69424;48.770;-1.564;2024-03-25T00:31:40;100914.41;;;6.35;78.39
80118;BME280;69424;48.770;-1.564;2024-03-25T00:32:28;100911.06;;;6.35;78.10
80118;BME280;69424;48.770;-1.564;2024-03-25T00:33:16;100909.85;;;6.36;78.14
80118;BME280;69424;48.770;-1.564;2024-03-25T00:34:06;100909.52;;;6.36;78.24
80118;BME280;69424;48.770;-1.564;2024-03-25T00:34:54;100909.67;;;6.36;78.22
80118;BME280;69424;48.770;-1.564;2024-03-25T00:35:43;100910.21;;;6.36;78.31
80118;BME280;69424;48.770;-1.564;2024-03-25T00:36:33;100909.34;;;6.36;78.23
80118;BME280;69424;48.770;-1.564;2024-03-25T00:37:21;100907.72;;;6.35;78.32
80118;BME280;69424;48.770;-1.564;2024-03-25T00:38:09;100904.23;;;6.35;78.27
80118;BME280;69424;48.770;-1.564;2024-03-25T00:38:57;100903.38;;;6.36;78.58
80118;BME280;69424;48.770;-1.564;2024-03-25T00:39:45;100902.85;;;6.36;78.01
80118;BME280;69424;48.770;-1.564;2024-03-25T00:40:33;100899.71;;;6.37;78.03
80118;BME280;69424;48.770;-1.564;2024-03-25T00:41:21;100898.88;;;6.38;78.18
80118;BME280;69424;48.770;-1.564;2024-03-25T00:42:09;100900.14;;;6.40;78.14
80118;BME280;69424;48.770;-1.564;2024-03-25T00:42:57;100895.97;;;6.41;78.01
80118;BME280;69424;48.770;-1.564;2024-03-25T00:43:45;100895.65;;;6.43;77.92
80118;BME280;69424;48.770;-1.564;2024-03-25T00:44:33;100896.90;;;6.44;77.99
80118;BME280;69424;48.770;-1.564;2024-03-25T00:45:21;100900.30;;;6.46;77.58
80118;BME280;69424;48.770;-1.564;2024-03-25T00:46:08;100899.10;;;6.47;78.01
80118;BME280;69424;48.770;-1.564;2024-03-25T00:46:56;100903.19;;;6.48;77.82
80118;BME280;69424;48.770;-1.564;2024-03-25T00:47:44;100901.50;;;6.50;77.61
80118;BME280;69424;48.770;-1.564;2024-03-25T00:48:32;100900.63;;;6.51;77.62
80118;BME280;69424;48.770;-1.564;2024-03-25T00:49:20;100900.13;;;6.51;77.65
80118;BME280;69424;48.770;-1.564;2024-03-25T00:50:09;100903.48;;;6.53;77.69
80118;BME280;69424;48.770;-1.564;2024-03-25T00:50:57;100901.37;;;6.53;77.67
80118;BME280;69424;48.770;-1.564;2024-03-25T00:51:45;100904.05;;;6.54;77.66
80118;BME280;69424;48.770;-1.564;2024-03-25T00:52:33;100903.36;;;6.55;77.61
80118;BME280;69424;48.770;-1.564;2024-03-25T00:53:21;100903.72;;;6.55;77.62
80118;BME280;69424;48.770;-1.564;2024-03-25T00:54:09;100901.96;;;6.55;77.59
80118;BME280;69424;48.770;-1.564;2024-03-25T00:54:57;100897.41;;;6.55;77.43
80118;BME280;69424;48.770;-1.564;2024-03-25T00:55:45;100898.80;;;6.55;77.44
80118;BME280;69424;48.770;-1.564;2024-03-25T00:56:33;100894.02;;;6.54;77.01
80118;BME280;69424;48.770;-1.564;2024-03-25T00:57:21;100892.14;;;6.55;77.51
80118;BME280;69424;48.770;-1.564;2024-03-25T00:58:09;100889.33;;;6.55;77.43
80118;BME280;69424;48.770;-1.564;2024-03-25T00:58:57;100886.52;;;6.55;77.15
80118;BME280;69424;48.770;-1.564;2024-03-25T00:59:49;100885.15;;;6.57;77.46
80118;BME280;69424;48.770;-1.564;2024-03-25T01:00:37;100885.70;;;6.57;77.25
80118;BME280;69424;48.770;-1.564;2024-03-25T01:01:25;100880.97;;;6.58;77.20
80118;BME280;69424;48.770;-1.564;2024-03-25T01:02:13;100879.06;;;6.59;77.19
80118;BME280;69424;48.770;-1.564;2024-03-25T01:03:01;100876.11;;;6.60;77.24
80118;BME280;69424;48.770;-1.564;2024-03-25T01:03:49;100873.67;;;6.61;77.29
80118;BME280;69424;48.770;-1.564;2024-03-25T01:04:37;100872.84;;;6.63;77.21
80118;BME280;69424;48.770;-1.564;2024-03-25T01:05:25;100874.82;;;6.65;77.00
80118;BME280;69424;48.770;-1.564;2024-03-25T01:06:13;100869.23;;;6.66;77.09
80118;BME280;69424;48.770;-1.564;2024-03-25T01:07:01;100868.77;;;6.68;77.14
80118;BME280;69424;48.770;-1.564;2024-03-25T01:07:48;100867.39;;;6.69;76.86
80118;BME280;69424;48.770;-1.564;2024-03-25T01:08:36;100866.70;;;6.70;76.68
80118;BME280;69424;48.770;-1.564;2024-03-25T01:09:24;100863.05;;;6.71;76.74
80118;BME280;69424;48.770;-1.564;2024-03-25T01:10:13;100858.13;;;6.71;76.64
80118;BME280;69424;48.770;-1.564;2024-03-25T01:11:00;100856.92;;;6.72;76.81
80118;BME280;69424;48.770;-1.564;2024-03-25T01:11:48;100854.46;;;6.73;76.86
80118;BME280;69424;48.770;-1.564;2024-03-25T01:12:36;100850.59;;;6.73;76.63
80118;BME280;69424;48.770;-1.564;2024-03-25T01:13:24;100849.04;;;6.73;76.56
80118;BME280;69424;48.770;-1.564;2024-03-25T01:14:11;100844.80;;;6.73;76.50
80118;BME280;69424;48.770;-1.564;2024-03-25T01:14:59;100843.41;;;6.73;76.51
80118;BME280;69424;48.770;-1.564;2024-03-25T01:15:47;100844.46;;;6.73;76.60
80118;BME280;69424;48.770;-1.564;2024-03-25T01:16:35;100839.88;;;6.73;76.65
80118;BME280;69424;48.770;-1.564;2024-03-25T01:17:23;100838.48;;;6.73;76.35
80118;BME280;69424;48.770;-1.564;2024-03-25T01:18:11;100837.23;;;6.72;76.58
80118;BME280;69424;48.770;-1.564;2024-03-25T01:18:59;100833.02;;;6.72;76.57
80118;BME280;69424;48.770;-1.564;2024-03-25T01:19:46;100834.62;;;6.73;76.38
80118;BME280;69424;48.770;-1.564;2024-03-25T01:20:34;100832.35;;;6.74;76.13
80118;BME280;69424;48.770;-1.564;2024-03-25T01:21:22;100833.92;;;6.73;76.21
80118;BME280;69424;48.770;-1.564;2024-03-25T01:22:10;100829.73;;;6.74;76.53
80118;BME280;69424;48.770;-1.564;2024-03-25T01:22:58;100834.67;;;6.75;76.27
80118;BME280;69424;48.770;-1.564;2024-03-25T01:23:46;100834.86;;;6.75;76.43
80118;BME280;69424;48.770;-1.564;2024-03-25T01:24:33;100831.52;;;6.76;76.36
80118;BME280;69424;48.770;-1.564;2024-03-25T01:25:22;100834.54;;;6.76;76.16
80118;BME280;69424;48.770;-1.564;2024-03-25T01:26:10;100834.38;;;6.77;76.15
80118;BME280;69424;48.770;-1.564;2024-03-25T01:26:58;100831.42;;;6.78;76.19
80118;BME280;69424;48.770;-1.564;2024-03-25T01:27:46;100829.48;;;6.78;76.18
80118;BME280;69424;48.770;-1.564;2024-03-25T01:28:33;100827.05;;;6.78;76.01
80118;BME280;69424;48.770;-1.564;2024-03-25T01:29:22;100823.17;;;6.79;76.04
80118;BME280;69424;48.770;-1.564;2024-03-25T01:30:10;100818.98;;;6.80;75.87
80118;BME280;69424;48.770;-1.564;2024-03-25T01:30:58;100814.38;;;6.79;76.09
80118;BME280;69424;48.770;-1.564;2024-03-25T01:31:46;100813.85;;;6.79;75.83
80118;BME280;69424;48.770;-1.564;2024-03-25T01:32:34;100815.42;;;6.78;75.73
80118;BME280;69424;48.770;-1.564;2024-03-25T01:33:22;100820.67;;;6.77;75.84
80118;BME280;69424;48.770;-1.564;2024-03-25T01:34:10;100821.19;;;6.77;75.89
80118;BME280;69424;48.770;-1.564;2024-03-25T01:34:58;100818.71;;;6.76;75.87
80118;BME280;69424;48.770;-1.564;2024-03-25T01:35:46;100820.27;;;6.75;75.62
80118;BME280;69424;48.770;-1.564;2024-03-25T01:36:34;100816.18;;;6.74;75.79
80118;BME280;69424;48.770;-1.564;2024-03-25T01:37:22;100815.62;;;6.72;75.65
80118;BME280;69424;48.770;-1.564;2024-03-25T01:38:10;100815.43;;;6.72;75.59
80118;BME280;69424;48.770;-1.564;2024-03-25T01:38:58;100812.42;;;6.71;75.58
80118;BME280;69424;48.770;-1.564;2024-03-25T01:39:46;100808.89;;;6.70;75.82
80118;BME280;69424;48.770;-1.564;2024-03-25T01:40:34;100807.66;;;6.70;75.38
80118;BME280;69424;48.770;-1.564;2024-03-25T01:41:22;100806.61;;;6.71;75.65
80118;BME280;69424;48.770;-1.564;2024-03-25T01:42:11;100799.59;;;6.71;75.74
80118;BME280;69424;48.770;-1.564;2024-03-25T01:43:00;100797.34;;;6.73;75.40
80118;BME280;69424;48.770;-1.564;2024-03-25T01:43:48;100792.60;;;6.73;75.33
80118;BME280;69424;48.770;-1.564;2024-03-25T01:44:36;100791.05;;;6.74;75.34
80118;BME280;69424;48.770;-1.564;2024-03-25T01:45:30;100789.31;;;6.74;75.17
80118;BME280;69424;48.770;-1.564;2024-03-25T01:46:20;100791.97;;;6.76;75.02
80118;BME280;69424;48.770;-1.564;2024-03-25T01:47:09;100793.38;;;6.76;75.20
80118;BME280;69424;48.770;-1.564;2024-03-25T01:47:58;100794.27;;;6.76;74.80
80118;BME280;69424;48.770;-1.564;2024-03-25T01:48:48;100795.49;;;6.76;74.92
80118;BME280;69424;48.770;-1.564;2024-03-25T01:49:37;100796.20;;;6.76;75.11
80118;BME280;69424;48.770;-1.564;2024-03-25T01:50:25;100795.52;;;6.76;74.85
80118;BME280;69424;48.770;-1.564;2024-03-25T01:51:16;100793.91;;;6.75;74.95
80118;BME280;69424;48.770;-1.564;2024-03-25T01:52:05;100790.20;;;6.75;74.97
80118;BME280;69424;48.770;-1.564;2024-03-25T01:52:53;100781.40;;;6.74;74.86
80118;BME280;69424;48.770;-1.564;2024-03-25T01:53:42;100779.80;;;6.74;74.95
80118;BME280;69424;48.770;-1.564;2024-03-25T01:54:31;100775.20;;;6.72;74.99
80118;BME280;69424;48.770;-1.564;2024-03-25T01:55:21;100769.21;;;6.72;74.93
80118;BME280;69424;48.770;-1.564;2024-03-25T01:56:12;100773.06;;;6.71;74.88
80118;BME280;69424;48.770;-1.564;2024-03-25T01:57:01;100778.86;;;6.71;74.88
80118;BME280;69424;48.770;-1.564;2024-03-25T01:57:49;100776.04;;;6.71;74.79
80118;BME280;69424;48.770;-1.564;2024-03-25T01:58:37;100772.86;;;6.70;74.81
80118;BME280;69424;48.770;-1.564;2024-03-25T01:59:25;100766.35;;;6.70;74.87
80118;BME280;69424;48.770;-1.564;2024-03-25T02:00:15;100763.54;;;6.70;75.06
80118;BME280;69424;48.770;-1.564;2024-03-25T02:01:07;100760.03;;;6.70;74.89
80118;BME280;69424;48.770;-1.564;2024-03-25T02:01:58;100758.45;;;6.71;74.91
80118;BME280;69424;48.770;-1.564;2024-03-25T02:02:47;100754.78;;;6.72;74.85
80118;BME280;69424;48.770;-1.564;2024-03-25T02:03:35;100751.84;;;6.73;74.89
80118;BME280;69424;48.770;-1.564;2024-03-25T02:04:23;100757.35;;;6.75;75.04
80118;BME280;69424;48.770;-1.564;2024-03-25T02:05:11;100750.71;;;6.76;74.98
80118;BME280;69424;48.770;-1.564;2024-03-25T02:06:27;100744.98;;;6.80;74.72
80118;BME280;69424;48.770;-1.564;2024-03-25T02:07:16;100742.70;;;6.80;74.58
80118;BME280;69424;48.770;-1.564;2024-03-25T02:08:06;100742.18;;;6.81;74.78
80118;BME280;69424;48.770;-1.564;2024-03-25T02:08:55;100739.77;;;6.83;74.76
80118;BME280;69424;48.770;-1.564;2024-03-25T02:09:44;100738.71;;;6.83;74.69
80118;BME280;69424;48.770;-1.564;2024-03-25T02:10:33;100738.02;;;6.84;74.65
80118;BME280;69424;48.770;-1.564;2024-03-25T02:11:22;100739.59;;;6.83;74.84
80118;BME280;69424;48.770;-1.564;2024-03-25T02:12:10;100736.77;;;6.83;74.65
80118;BME280;69424;48.770;-1.564;2024-03-25T02:13:00;100738.52;;;6.83;74.61
80118;BME280;69424;48.770;-1.564;2024-03-25T02:13:48;100732.35;;;6.82;74.86
80118;BME280;69424;48.770;-1.564;2024-03-25T02:14:36;100735.18;;;6.82;74.85
80118;BME280;69424;48.770;-1.564;2024-03-25T02:15:24;100734.46;;;6.82;74.62
80118;BME280;69424;48.770;-1.564;2024-03-25T02:16:14;100730.75;;;6.81;74.94
80118;BME280;69424;48.770;-1.564;2024-03-25T02:17:02;100733.02;;;6.80;74.76
80118;BME280;69424;48.770;-1.564;2024-03-25T02:17:50;100736.52;;;6.79;74.72
80118;BME280;69424;48.770;-1.564;2024-03-25T02:18:38;100732.64;;;6.79;75.03
80118;BME280;69424;48.770;-1.564;2024-03-25T02:19:28;100730.33;;;6.77;74.77
80118;BME280;69424;48.770;-1.564;2024-03-25T02:20:16;100729.97;;;6.77;74.86
80118;BME280;69424;48.770;-1.564;2024-03-25T02:21:04;100724.67;;;6.77;74.66
80118;BME280;69424;48.770;-1.564;2024-03-25T02:21:53;100721.36;;;6.77;74.75
80118;BME280;69424;48.770;-1.564;2024-03-25T02:22:41;100713.97;;;6.77;74.90
80118;BME280;69424;48.770;-1.564;2024-03-25T02:23:29;100713.64;;;6.77;74.63
80118;BME280;69424;48.770;-1.564;2024-03-25T02:24:19;100710.85;;;6.79;74.92
80118;BME280;69424;48.770;-1.564;2024-03-25T02:25:09;100711.42;;;6.81;74.85
80118;BME280;69424;48.770;-1.564;2024-03-25T02:25:57;100708.63;;;6.82;74.64
80118;BME280;69424;48.770;-1.564;2024-03-25T02:26:45;100707.78;;;6.83;74.84
80118;BME280;69424;48.770;-1.564;2024-03-25T02:27:33;100701.29;;;6.84;74.70
80118;BME280;69424;48.770;-1.564;2024-03-25T02:28:22;100699.58;;;6.86;74.48
80118;BME280;69424;48.770;-1.564;2024-03-25T02:29:10;100703.13;;;6.87;74.72
80118;BME280;69424;48.770;-1.564;2024-03-25T02:30:16;100701.75;;;6.88;74.77
80118;BME280;69424;48.770;-1.564;2024-03-25T02:31:04;100699.10;;;6.88;74.66
80118;BME280;69424;48.770;-1.564;2024-03-25T02:31:52;100694.69;;;6.87;74.25
80118;BME280;69424;48.770;-1.564;2024-03-25T02:32:42;100692.58;;;6.86;74.28
80118;BME280;69424;48.770;-1.564;2024-03-25T02:33:30;100688.19;;;6.87;74.49
80118;BME280;69424;48.770;-1.564;2024-03-25T02:34:18;100684.13;;;6.86;74.60
80118;BME280;69424;48.770;-1.564;2024-03-25T02:35:09;100683.05;;;6.86;74.76
80118;BME280;69424;48.770;-1.564;2024-03-25T02:35:58;100679.86;;;6.85;74.51
80118;BME280;69424;48.770;-1.564;2024-03-25T02:36:46;100680.38;;;6.84;74.43
80118;BME280;69424;48.770;-1.564;2024-03-25T02:37:34;100684.23;;;6.83;74.55
80118;BME280;69424;48.770;-1.564;2024-03-25T02:38:22;100680.84;;;6.81;74.85
80118;BME280;69424;48.770;-1.564;2024-03-25T02:39:11;100677.46;;;6.79;74.57
80118;BME280;69424;48.770;-1.564;2024-03-25T02:40:00;100672.69;;;6.78;74.76
80118;BME280;69424;48.770;-1.564;2024-03-25T02:40:50;100668.98;;;6.77;74.69
80118;BME280;69424;48.770;-1.564;2024-03-25T02:41:38;100663.34;;;6.76;74.80
80118;BME280;69424;48.770;-1.564;2024-03-25T02:42:26;100657.19;;;6.76;74.94
80118;BME280;69424;48.770;-1.564;2024-03-25T02:43:14;100656.13;;;6.76;74.55
80118;BME280;69424;48.770;-1.564;2024-03-25T02:44:02;100652.27;;;6.76;74.61
80118;BME280;69424;48.770;-1.564;2024-03-25T02:44:51;100653.52;;;6.77;74.57
80118;BME280;69424;48.770;-1.564;2024-03-25T02:45:38;100652.30;;;6.78;74.81
80118;BME280;69424;48.770;-1.564;2024-03-25T02:46:27;100653.36;;;6.78;74.75
80118;BME280;69424;48.770;-1.564;2024-03-25T02:47:15;100652.14;;;6.79;74.56
80118;BME280;69424;48.770;-1.564;2024-03-25T02:48:03;100657.09;;;6.80;74.61
80118;BME280;69424;48.770;-1.564;2024-03-25T02:48:50;100655.52;;;6.81;74.73
80118;BME280;69424;48.770;-1.564;2024-03-25T02:49:38;100654.64;;;6.81;74.63
80118;BME280;69424;48.770;-1.564;2024-03-25T02:50:27;100654.99;;;6.81;74.47
80118;BME280;69424;48.770;-1.564;2024-03-25T02:51:14;100658.33;;;6.81;74.68
80118;BME280;69424;48.770;-1.564;2024-03-25T02:52:02;100654.64;;;6.81;74.86
80118;BME280;69424;48.770;-1.564;2024-03-25T02:52:50;100656.23;;;6.81;74.58
80118;BME280;69424;48.770;-1.564;2024-03-25T02:53:38;100651.83;;;6.81;74.56
80118;BME280;69424;48.770;-1.564;2024-03-25T02:54:26;100647.59;;;6.80;74.73
80118;BME280;69424;48.770;-1.564;2024-03-25T02:55:14;100642.48;;;6.78;74.59
80118;BME280;69424;48.770;-1.564;2024-03-25T02:56:02;100642.29;;;6.78;74.54
80118;BME280;69424;48.770;-1.564;2024-03-25T02:56:50;100640.35;;;6.77;74.77
80118;BME280;69424;48.770;-1.564;2024-03-25T02:57:38;100635.75;;;6.76;74.61
80118;BME280;69424;48.770;-1.564;2024-03-25T02:58:25;100633.42;;;6.76;74.42
80118;BME280;69424;48.770;-1.564;2024-03-25T02:59:14;100630.25;;;6.75;74.50
80118;BME280;69424;48.770;-1.564;2024-03-25T03:00:02;100622.87;;;6.74;74.53
80118;BME280;69424;48.770;-1.564;2024-03-25T03:00:50;100620.42;;;6.75;74.53
80118;BME280;69424;48.770;-1.564;2024-03-25T03:01:38;100616.74;;;6.75;74.58
80118;BME280;69424;48.770;-1.564;2024-03-25T03:02:26;100615.53;;;6.76;74.63
80118;BME280;69424;48.770;-1.564;2024-03-25T03:03:14;100620.33;;;6.78;74.50
80118;BME280;69424;48.770;-1.564;2024-03-25T03:04:02;100616.65;;;6.80;74.29
80118;BME280;69424;48.770;-1.564;2024-03-25T03:04:50;100615.99;;;6.82;74.09
80118;BME280;69424;48.770;-1.564;2024-03-25T03:05:38;100614.09;;;6.83;74.22
80118;BME280;69424;48.770;-1.564;2024-03-25T03:06:26;100612.16;;;6.83;74.19
80118;BME280;69424;48.770;-1.564;2024-03-25T03:07:14;100612.91;;;6.85;74.36
80118;BME280;69424;48.770;-1.564;2024-03-25T03:08:02;100612.73;;;6.85;74.09
80118;BME280;69424;48.770;-1.564;2024-03-25T03:08:50;100615.94;;;6.87;74.41
80118;BME280;69424;48.770;-1.564;2024-03-25T03:09:38;100612.59;;;6.87;74.21
80118;BME280;69424;48.770;-1.564;2024-03-25T03:10:26;100614.52;;;6.87;74.45
80118;BME280;69424;48.770;-1.564;2024-03-25T03:11:13;100616.64;;;6.87;74.27
80118;BME280;69424;48.770;-1.564;2024-03-25T03:12:01;100616.81;;;6.87;74.11
80118;BME280;69424;48.770;-1.564;2024-03-25T03:12:49;100612.42;;;6.87;74.01
80118;BME280;69424;48.770;-1.564;2024-03-25T03:13:37;100607.83;;;6.86;74.35
80118;BME280;69424;48.770;-1.564;2024-03-25T03:14:25;100608.17;;;6.85;74.27
80118;BME280;69424;48.770;-1.564;2024-03-25T03:15:13;100603.40;;;6.84;74.47
80118;BME280;69424;48.770;-1.564;2024-03-25T03:16:03;100605.86;;;6.84;74.13
80118;BME280;69424;48.770;-1.564;2024-03-25T03:16:51;100602.16;;;6.84;74.57
80118;BME280;69424;48.770;-1.564;2024-03-25T03:17:42;100604.44;;;6.84;74.27
80118;BME280;69424;48.770;-1.564;2024-03-25T03:18:30;100601.41;;;6.82;74.14
80118;BME280;69424;48.770;-1.564;2024-03-25T03:19:18;100596.29;;;6.81;74.05
80118;BME280;69424;48.770;-1.564;2024-03-25T03:20:06;100593.29;;;6.81;73.98
80118;BME280;69424;48.770;-1.564;2024-03-25T03:20:54;100594.52;;;6.81;73.84
80118;BME280;69424;48.770;-1.564;2024-03-25T03:21:43;100592.95;;;6.81;74.12
80118;BME280;69424;48.770;-1.564;2024-03-25T03:22:32;100595.09;;;6.82;74.08
80118;BME280;69424;48.770;-1.564;2024-03-25T03:23:19;100594.06;;;6.83;73.86
80118;BME280;69424;48.770;-1.564;2024-03-25T03:24:07;100592.15;;;6.85;73.83
80118;BME280;69424;48.770;-1.564;2024-03-25T03:24:55;100592.39;;;6.87;73.63
80118;BME280;69424;48.770;-1.564;2024-03-25T03:25:43;100587.46;;;6.87;73.52
80118;BME280;69424;48.770;-1.564;2024-03-25T03:26:31;100587.67;;;6.89;73.15
80118;BME280;69424;48.770;-1.564;2024-03-25T03:27:19;100582.23;;;6.89;72.93
80118;BME280;69424;48.770;-1.564;2024-03-25T03:28:07;100578.17;;;6.89;73.00
80118;BME280;69424;48.770;-1.564;2024-03-25T03:28:54;100577.48;;;6.89;72.79
80118;BME280;69424;48.770;-1.564;2024-03-25T03:29:42;100572.20;;;6.89;73.10
80118;BME280;69424;48.770;-1.564;2024-03-25T03:30:30;100571.65;;;6.87;72.61
80118;BME280;69424;48.770;-1.564;2024-03-25T03:31:18;100570.23;;;6.87;72.58
80118;BME280;69424;48.770;-1.564;2024-03-25T03:32:06;100567.58;;;6.86;72.83
80118;BME280;69424;48.770;-1.564;2024-03-25T03:32:54;100567.39;;;6.86;72.64
80118;BME280;69424;48.770;-1.564;2024-03-25T03:33:41;100565.27;;;6.85;72.63
80118;BME280;69424;48.770;-1.564;2024-03-25T03:34:29;100563.46;;;6.83;72.18
80118;BME280;69424;48.770;-1.564;2024-03-25T03:35:17;100564.30;;;6.82;72.54
80118;BME280;69424;48.770;-1.564;2024-03-25T03:36:05;100562.86;;;6.79;72.44
80118;BME280;69424;48.770;-1.564;2024-03-25T03:36:53;100561.95;;;6.77;72.73
80118;BME280;69424;48.770;-1.564;2024-03-25T03:37:41;100562.95;;;6.75;72.35
80118;BME280;69424;48.770;-1.564;2024-03-25T03:38:29;100557.47;;;6.73;72.60
80118;BME280;69424;48.770;-1.564;2024-03-25T03:39:17;100556.00;;;6.71;72.67
80118;BME280;69424;48.770;-1.564;2024-03-25T03:40:05;100547.73;;;6.69;72.74
80118;BME280;69424;48.770;-1.564;2024-03-25T03:41:45;100546.25;;;6.67;72.83
80118;BME280;69424;48.770;-1.564;2024-03-25T03:42:33;100542.37;;;6.66;72.97
80118;BME280;69424;48.770;-1.564;2024-03-25T03:43:21;100540.95;;;6.65;72.66
80118;BME280;69424;48.770;-1.564;2024-03-25T03:44:09;100541.13;;;6.65;72.77
80118;BME280;69424;48.770;-1.564;2024-03-25T03:44:57;100543.23;;;6.66;72.91
80118;BME280;69424;48.770;-1.564;2024-03-25T03:45:45;100544.30;;;6.66;72.81
80118;BME280;69424;48.770;-1.564;2024-03-25T03:46:33;100543.42;;;6.67;72.88
80118;BME280;69424;48.770;-1.564;2024-03-25T03:47:20;100546.59;;;6.67;72.67
80118;BME280;69424;48.770;-1.564;2024-03-25T03:48:08;100543.77;;;6.66;72.43
80118;BME280;69424;48.770;-1.564;2024-03-25T03:48:56;100543.04;;;6.65;72.51
80118;BME280;69424;48.770;-1.564;2024-03-25T03:49:44;100546.17;;;6.63;72.69
80118;BME280;69424;48.770;-1.564;2024-03-25T03:50:32;100539.83;;;6.62;72.74
80118;BME280;69424;48.770;-1.564;2024-03-25T03:51:53;100542.06;;;6.60;72.69
80118;BME280;69424;48.770;-1.564;2024-03-25T03:52:41;100535.30;;;6.56;72.67
80118;BME280;69424;48.770;-1.564;2024-03-25T03:53:29;100532.60;;;6.53;72.52
80118;BME280;69424;48.770;-1.564;2024-03-25T03:54:17;100528.33;;;6.50;72.78
80118;BME280;69424;48.770;-1.564;2024-03-25T03:55:06;100526.14;;;6.47;72.73
80118;BME280;69424;48.770;-1.564;2024-03-25T03:55:58;100525.23;;;6.46;72.59
80118;BME280;69424;48.770;-1.564;2024-03-25T03:56:46;100523.77;;;6.43;72.76
80118;BME280;69424;48.770;-1.564;2024-03-25T03:57:34;100523.02;;;6.41;73.01
80118;BME280;69424;48.770;-1.564;2024-03-25T03:58:23;100521.74;;;6.39;72.65
80118;BME280;69424;48.770;-1.564;2024-03-25T03:59:36;100520.98;;;6.36;73.00
80118;BME280;69424;48.770;-1.564;2024-03-25T04:00:23;100519.66;;;6.33;73.14
80118;BME280;69424;48.770;-1.564;2024-03-25T04:01:18;100518.21;;;6.31;73.20
80118;BME280;69424;48.770;-1.564;2024-03-25T04:02:07;100516.95;;;6.29;73.32
80118;BME280;69424;48.770;-1.564;2024-03-25T04:02:56;100516.73;;;6.27;73.28
80118;BME280;69424;48.770;-1.564;2024-03-25T04:03:44;100517.58;;;6.25;73.39
80118;BME280;69424;48.770;-1.564;2024-03-25T04:04:32;100517.56;;;6.24;73.38
80118;BME280;69424;48.770;-1.564;2024-03-25T04:05:20;100517.34;;;6.23;73.42
80118;BME280;69424;48.770;-1.564;2024-03-25T04:06:12;100515.22;;;6.22;73.34
80118;BME280;69424;48.770;-1.564;2024-03-25T04:07:02;100513.64;;;6.22;73.65
80118;BME280;69424;48.770;-1.564;2024-03-25T04:07:49;100510.98;;;6.21;73.53
80118;BME280;69424;48.770;-1.564;2024-03-25T04:08:39;100510.27;;;6.21;73.72
80118;BME280;69424;48.770;-1.564;2024-03-25T04:09:27;100507.95;;;6.19;73.77
80118;BME280;69424;48.770;-1.564;2024-03-25T04:10:16;100506.35;;;6.18;73.72
80118;BME280;69424;48.770;-1.564;2024-03-25T04:11:05;100508.77;;;6.17;73.75
80118;BME280;69424;48.770;-1.564;2024-03-25T04:11:57;100506.63;;;6.16;73.66
80118;BME280;69424;48.770;-1.564;2024-03-25T04:12:45;100505.72;;;6.14;73.81
80118;BME280;69424;48.770;-1.564;2024-03-25T04:13:34;100505.51;;;6.12;73.92
80118;BME280;69424;48.770;-1.564;2024-03-25T04:14:22;100510.75;;;6.11;73.91
80118;BME280;69424;48.770;-1.564;2024-03-25T04:15:10;100511.41;;;6.09;73.87
80118;BME280;69424;48.770;-1.564;2024-03-25T04:16:16;100514.34;;;6.07;73.89